Milwaukee, Wisconsin
Traffic Map
Current Weather Conditions
Milwaukee, Wisconsin
Few Clouds
Few Clouds
18°
Feels Like: 18°
Wind Chill: 18° Ceiling: Unl
Heat Index: 18° Visibility: 10mi
Dew Point: 13° Wind: 5mph
Humidity: 72% Direction: 130° (SE)
Pressure: 29.91in Gusts: 0mph
Raw Report DataKMKE 271352Z 13004KT 10SM FEW250 18/13 A2991 RMK AO2 SLP130 T01780128
Traffic Incident Summary
Active as of:
Severity:
Category:
InformationThere was an issue retrieving the traffic information for this location. Please try a different location or try again shortly.
Advertisements
Track Severe Weather on mobile